createdAt,value
2022-09-03T00:01:51.024Z,27.51
2022-09-03T00:07:03.159Z,27.54
2022-09-03T00:12:25.158Z,27.55
2022-09-03T00:17:40.202Z,27.52
2022-09-03T00:22:55.555Z,27.57
2022-09-03T00:27:58.979Z,27.61
2022-09-03T00:33:19.018Z,27.53
2022-09-03T00:38:22.776Z,27.56
2022-09-03T00:44:02.503Z,27.52
2022-09-03T00:49:25.504Z,27.56
2022-09-03T00:54:50.015Z,27.54
2022-09-03T00:59:57.204Z,27.56
2022-09-03T01:05:41.037Z,27.56
2022-09-03T01:11:04.490Z,27.54
2022-09-03T01:16:40.589Z,27.57
2022-09-03T01:21:48.574Z,27.57
2022-09-03T01:27:11.323Z,27.57
2022-09-03T01:32:45.304Z,27.58
2022-09-03T01:38:06.652Z,27.58
2022-09-03T01:43:15.045Z,27.56
2022-09-03T01:48:31.187Z,27.64
2022-09-03T01:53:54.936Z,27.57
2022-09-03T01:59:11.859Z,27.56
2022-09-03T02:04:25.871Z,27.56
2022-09-03T02:09:32.693Z,27.58
2022-09-03T02:14:36.117Z,27.57
2022-09-03T02:19:39.500Z,27.57
2022-09-03T02:24:41.516Z,27.51
2022-09-03T02:29:43.549Z,27.52
2022-09-03T02:34:45.436Z,27.56
2022-09-03T02:39:47.538Z,27.60
2022-09-03T02:44:56.052Z,27.62
2022-09-03T02:49:58.627Z,27.59
2022-09-03T02:55:00.457Z,27.53
2022-09-03T03:00:02.483Z,27.56
2022-09-03T03:05:05.634Z,27.59
2022-09-03T03:10:08.865Z,27.62
2022-09-03T03:15:11.123Z,27.51
2022-09-03T03:20:13.032Z,27.63
2022-09-03T03:25:15.024Z,27.50
2022-09-03T03:30:17.685Z,27.61
2022-09-03T03:35:19.922Z,27.60
2022-09-03T03:40:21.946Z,27.60
2022-09-03T03:45:23.854Z,27.61
2022-09-03T03:50:26.848Z,27.61
2022-09-03T03:55:28.723Z,27.57
2022-09-03T04:00:37.911Z,27.61
2022-09-03T04:05:43.817Z,27.63
2022-09-03T04:10:50.627Z,27.60
2022-09-03T04:15:53.009Z,27.51
2022-09-03T04:20:59.869Z,27.57
2022-09-03T04:26:01.855Z,27.63
2022-09-03T04:31:06.141Z,27.50
2022-09-03T04:36:21.388Z,27.55
2022-09-03T04:41:28.757Z,27.52
2022-09-03T04:46:34.105Z,27.57
2022-09-03T04:51:38.594Z,27.55
2022-09-03T04:56:40.912Z,27.55
2022-09-03T05:01:43.854Z,27.52
2022-09-03T05:06:46.280Z,27.51
2022-09-03T05:11:48.258Z,27.50
2022-09-03T05:16:53.068Z,27.49
2022-09-03T05:21:55.242Z,27.50
2022-09-03T05:26:57.559Z,27.57
2022-09-03T05:32:00.804Z,27.53
2022-09-03T05:37:02.674Z,27.56
2022-09-03T05:42:04.897Z,27.60
2022-09-03T05:47:08.041Z,27.52
2022-09-03T05:52:10.361Z,27.60
2022-09-03T05:57:12.714Z,27.51
2022-09-03T06:02:14.637Z,27.53
2022-09-03T06:07:17.382Z,27.51
2022-09-03T06:12:19.217Z,27.54
2022-09-03T06:17:21.613Z,27.50
2022-09-03T06:22:25.743Z,27.43
2022-09-03T06:27:29.608Z,27.47
2022-09-03T06:32:31.583Z,27.62
2022-09-03T06:37:33.326Z,27.63
2022-09-03T06:42:35.150Z,27.58
2022-09-03T06:47:37.210Z,27.66
2022-09-03T06:52:39.114Z,27.68
2022-09-03T06:57:40.999Z,27.63
2022-09-03T07:02:45.072Z,27.50
2022-09-03T07:07:46.985Z,27.47
2022-09-03T07:12:48.941Z,27.51
2022-09-03T07:17:51.069Z,27.46
2022-09-03T07:22:56.882Z,27.53
2022-09-03T07:27:58.991Z,27.53
2022-09-03T07:33:04.815Z,27.51
2022-09-03T07:38:06.736Z,27.63
2022-09-03T07:43:08.951Z,27.52
2022-09-03T07:48:10.779Z,27.44
2022-09-03T07:58:50.473Z,27.51
2022-09-03T08:03:53.821Z,27.12
2022-09-03T08:09:04.633Z,27.36
2022-09-03T08:14:09.935Z,27.45
2022-09-03T08:19:13.608Z,27.33
2022-09-03T08:24:17.465Z,27.11
2022-09-03T08:29:20.457Z,27.20
2022-09-03T08:34:22.253Z,27.29
2022-09-03T08:39:24.125Z,27.24
2022-09-03T08:44:50.034Z,27.24
2022-09-03T08:50:00.725Z,27.18
2022-09-03T08:55:15.154Z,27.30
2022-09-03T09:00:18.075Z,27.20
2022-09-03T09:05:31.020Z,27.33
2022-09-03T09:10:46.195Z,27.42
2022-09-03T09:16:14.253Z,27.35
2022-09-03T09:21:58.279Z,27.29
2022-09-03T09:27:04.674Z,27.29
2022-09-03T09:32:10.634Z,27.38
2022-09-03T09:37:14.767Z,27.41
2022-09-03T09:42:16.587Z,27.42
2022-09-03T09:47:26.027Z,27.65
2022-09-03T09:52:30.612Z,27.64
2022-09-03T09:57:32.305Z,27.53
2022-09-03T10:02:38.373Z,27.49
2022-09-03T10:07:40.447Z,27.42
2022-09-03T10:13:06.004Z,27.49
2022-09-03T10:18:45.364Z,27.61
2022-09-03T10:24:16.359Z,27.60
2022-09-03T10:29:22.706Z,27.65
2022-09-03T10:34:37.430Z,27.76
2022-09-03T10:40:06.820Z,27.75
2022-09-03T10:45:18.513Z,27.83
2022-09-03T10:50:20.446Z,27.75
2022-09-03T10:55:33.455Z,27.77
2022-09-03T11:00:47.269Z,27.83
2022-09-03T11:05:52.130Z,27.89
2022-09-03T11:10:58.083Z,27.78
2022-09-03T11:16:12.320Z,27.74
2022-09-03T11:21:16.767Z,27.74
2022-09-03T11:26:20.904Z,27.74
2022-09-03T11:31:58.197Z,27.53
2022-09-03T11:37:30.782Z,27.43
2022-09-03T11:42:41.711Z,27.58
2022-09-03T11:47:44.970Z,27.73
2022-09-03T11:52:48.541Z,27.75
2022-09-03T11:57:50.346Z,27.68
2022-09-03T12:02:59.150Z,27.65
2022-09-03T12:08:13.231Z,27.46
2022-09-03T12:13:27.050Z,27.56
2022-09-03T12:18:35.028Z,27.52
2022-09-03T12:23:44.943Z,27.69
2022-09-03T12:28:58.319Z,27.64
2022-09-03T12:34:09.929Z,27.48
2022-09-03T12:40:05.107Z,27.68
2022-09-03T12:44:42.938Z,27.72
2022-09-03T12:49:53.210Z,27.67
2022-09-03T12:55:19.857Z,27.71
2022-09-03T13:00:22.623Z,27.51
2022-09-03T13:05:37.546Z,27.55
2022-09-03T13:10:43.907Z,27.55
2022-09-03T13:16:15.832Z,27.74
2022-09-03T13:21:36.283Z,27.61
2022-09-03T13:27:03.390Z,27.64
2022-09-03T13:32:17.687Z,27.58
2022-09-03T13:37:38.674Z,27.79
2022-09-03T13:42:46.111Z,27.83
2022-09-03T13:48:26.334Z,27.85
2022-09-03T13:53:42.294Z,27.88
2022-09-03T13:58:50.055Z,27.97
2022-09-03T14:03:57.803Z,27.94
2022-09-03T14:09:35.113Z,27.96
2022-09-03T14:14:57.158Z,27.66
2022-09-03T14:20:07.299Z,27.82
2022-09-03T14:25:17.654Z,27.76
2022-09-03T14:31:11.949Z,27.90
2022-09-03T14:36:19.435Z,27.72
2022-09-03T14:41:33.143Z,27.90
2022-09-03T14:47:15.503Z,27.86
2022-09-03T14:52:31.706Z,27.88
2022-09-03T14:57:56.290Z,27.87
2022-09-03T15:03:34.981Z,27.69
2022-09-03T15:08:39.816Z,27.43
2022-09-03T15:14:08.599Z,27.47
2022-09-03T15:19:33.602Z,27.52
2022-09-03T15:25:04.079Z,27.55
2022-09-03T15:30:12.689Z,27.62
2022-09-03T15:35:34.196Z,27.61
2022-09-03T15:40:51.582Z,27.77
2022-09-03T15:45:58.576Z,27.73
2022-09-03T15:51:34.313Z,27.63
2022-09-03T15:57:17.602Z,27.58
2022-09-03T16:02:33.748Z,27.85
2022-09-03T16:07:45.065Z,27.70
2022-09-03T16:13:24.313Z,27.70
2022-09-03T16:18:40.136Z,27.66
2022-09-03T16:24:08.622Z,27.80
2022-09-03T16:29:16.172Z,27.79
2022-09-03T16:34:23.979Z,27.89
2022-09-03T16:39:50.291Z,27.98
2022-09-03T16:45:01.403Z,27.68
2022-09-03T16:50:16.343Z,27.55
2022-09-03T16:55:36.895Z,27.67
2022-09-03T17:00:58.060Z,27.66
2022-09-03T17:06:13.246Z,27.63
2022-09-03T17:11:20.629Z,27.78
2022-09-03T17:16:31.529Z,27.76
2022-09-03T17:21:46.539Z,27.62
2022-09-03T17:27:25.440Z,27.55
2022-09-03T17:32:39.632Z,27.64
2022-09-03T17:37:56.914Z,27.62
2022-09-03T17:43:04.666Z,27.66
2022-09-03T17:48:21.650Z,27.54
2022-09-03T17:53:31.093Z,27.64
2022-09-03T17:58:42.583Z,27.70
2022-09-03T18:04:03.369Z,27.66
2022-09-03T18:09:09.447Z,27.63
2022-09-03T18:14:34.030Z,27.67
2022-09-03T18:20:18.295Z,27.61
2022-09-03T18:25:44.311Z,27.62
2022-09-03T18:31:04.532Z,27.66
2022-09-03T18:36:25.638Z,27.73
2022-09-03T18:41:58.063Z,27.70
2022-09-03T18:48:05.467Z,27.69
2022-09-03T18:53:37.738Z,27.68
2022-09-03T18:59:39.987Z,27.69
2022-09-03T20:50:48.497Z,27.82
2022-09-03T20:55:54.482Z,27.85
2022-09-03T21:01:05.491Z,27.81
2022-09-03T21:06:21.483Z,27.82
2022-09-03T21:11:41.159Z,27.73
2022-09-03T21:17:05.167Z,27.83
2022-09-03T21:22:44.103Z,27.78
2022-09-03T21:28:01.704Z,27.88
2022-09-03T21:33:09.926Z,27.90
2022-09-03T21:38:17.880Z,27.77
2022-09-03T21:43:24.832Z,27.91
2022-09-03T21:48:35.886Z,27.92
2022-09-03T21:53:45.822Z,27.88
2022-09-03T21:59:32.063Z,27.82
2022-09-03T22:04:34.148Z,27.87
2022-09-03T22:09:46.809Z,27.82
2022-09-03T22:14:52.006Z,27.87
2022-09-03T22:19:53.994Z,27.87
2022-09-03T22:25:05.299Z,27.81
2022-09-03T22:30:14.008Z,27.80
2022-09-03T22:35:37.416Z,27.72
2022-09-03T22:41:02.281Z,27.75
2022-09-03T22:46:37.779Z,27.69
2022-09-03T22:51:58.151Z,27.73
2022-09-03T22:57:02.606Z,27.70
2022-09-03T23:02:04.512Z,27.67
2022-09-03T23:07:29.502Z,27.70
2022-09-03T23:12:39.364Z,27.69
2022-09-03T23:17:47.401Z,27.70
2022-09-03T23:22:59.759Z,27.73
2022-09-03T23:28:24.355Z,27.67
2022-09-03T23:33:26.232Z,27.71
2022-09-03T23:38:54.394Z,27.64
2022-09-03T23:44:01.997Z,27.70
2022-09-03T23:49:09.651Z,27.60
2022-09-03T23:54:25.887Z,27.64
2022-09-03T23:59:42.826Z,27.65
